Terminal Aerodrome Forecast
Issued by NWS

Home | Current Version | Previous Version | Text Only | Print | Product List | Glossary On
Versions: 1 2 3 4 5 6 7 8 9 10 11 12 13 14 15 16 17 18 19 20 21 22 23 24 25 26 27
000
FTUS41 KBUF 201500 AAA
TAFJHW
TAF AMD
KJHW 201517Z 2015/2112 18008KT P6SM VCSH SCT012 OVC025
     FM201700 20008KT 4SM -SHRA VCTS SCT040CB OVC060
     FM202100 19006KT P6SM VCSH BKN045
     FM210800 VRB03KT P6SM BKN025
      AMD LTD TO CLD VIS AND WIND=

USA.gov is the U.S. government's official web portal to all federal, state and local government web resources and services.